Time;durP1;ratioP1;P1;durP2;ratioP2;P2;SDS_P1;SDS_P2;PMS_P1;PMS_P2;Temp;Humidity;BMP_temperature;BMP_pressure;BME280_temperature;BME280_humidity;BME280_pressure;Samples;Min_cycle;Max_cycle;Signal;HPM_P1;HPM_P2
2021/06/29 00:02:11;;;;;;;6.20;5.60;;;20.50;81.10;;;;;;10405448;28;20226;-27
2021/06/29 00:07:33;;;;;;;7.43;5.50;;;20.60;81.20;;;;;;10438225;28;20193;-27
2021/06/29 00:12:57;;;;;;;6.10;5.60;;;20.60;81.10;;;;;;10427268;28;20222;-28
2021/06/29 00:18:19;;;;;;;6.07;5.57;;;20.60;81.80;;;;;;10410194;28;20218;-28
2021/06/29 00:23:41;;;;;;;6.00;5.50;;;20.60;81.60;;;;;;10450499;28;20688;-27
2021/06/29 00:29:05;;;;;;;5.73;5.13;;;20.50;82.50;;;;;;10451029;28;20247;-27
2021/06/29 00:34:27;;;;;;;6.57;6.07;;;20.60;82.50;;;;;;10453101;28;20614;-27
2021/06/29 00:39:49;;;;;;;6.70;6.07;;;20.50;82.80;;;;;;10448201;28;20588;-27
2021/06/29 00:45:14;;;;;;;8.60;6.67;;;20.60;82.90;;;;;;10450742;28;20588;-29
2021/06/29 00:50:37;;;;;;;5.63;5.13;;;20.60;82.80;;;;;;10450372;28;20331;-27
2021/06/29 00:55:59;;;;;;;6.00;5.50;;;20.50;83.00;;;;;;10450700;28;20557;-27
2021/06/29 01:01:22;;;;;;;6.33;5.60;;;20.50;83.10;;;;;;10451652;28;20224;-27
2021/06/29 01:06:45;;;;;;;7.30;6.57;;;20.50;82.80;;;;;;10472177;22;20229;-29
2021/06/29 01:12:08;;;;;;;7.17;6.57;;;20.50;82.60;;;;;;10457481;28;20584;-29
2021/06/29 01:17:32;;;;;;;7.27;6.57;;;20.50;83.40;;;;;;10474585;28;20224;-29
2021/06/29 01:22:57;;;;;;;8.30;6.77;;;20.50;83.60;;;;;;10472103;28;20189;-29
2021/06/29 01:28:23;;;;;;;6.90;6.30;;;20.50;83.40;;;;;;10467704;28;20282;-29
2021/06/29 01:33:46;;;;;;;7.07;6.47;;;20.50;83.70;;;;;;10470494;28;20216;-29
2021/06/29 01:39:12;;;;;;;7.40;6.70;;;20.40;83.80;;;;;;10482329;28;20209;-29
2021/06/29 01:44:35;;;;;;;7.77;6.90;;;20.40;83.90;;;;;;10484183;28;20207;-29
2021/06/29 01:49:57;;;;;;;7.50;6.63;;;20.50;83.50;;;;;;10464783;28;20576;-29
2021/06/29 01:55:21;;;;;;;7.43;6.73;;;20.40;83.40;;;;;;10457348;28;20585;-27
2021/06/29 02:00:43;;;;;;;7.90;7.20;;;20.40;83.90;;;;;;10471886;28;20193;-28
2021/06/29 02:06:05;;;;;;;8.00;6.60;;;20.30;84.00;;;;;;10503739;28;20224;-28
2021/06/29 02:11:29;;;;;;;7.60;6.70;;;20.30;84.40;;;;;;10481953;28;20220;-29
2021/06/29 02:16:51;;;;;;;7.13;6.50;;;20.30;84.70;;;;;;10477622;28;20221;-28
2021/06/29 02:22:13;;;;;;;6.27;5.67;;;20.40;83.20;;;;;;10485774;28;20200;-29
2021/06/29 02:27:37;;;;;;;6.20;5.60;;;20.40;82.20;;;;;;10464234;28;20213;-29
2021/06/29 02:32:59;;;;;;;7.10;6.50;;;20.50;82.30;;;;;;10455334;28;20224;-28
2021/06/29 02:38:22;;;;;;;8.20;7.07;;;20.50;82.90;;;;;;10465245;28;20215;-28
2021/06/29 02:43:47;;;;;;;8.40;7.40;;;20.50;82.60;;;;;;10464565;28;20212;-28
2021/06/29 02:49:09;;;;;;;8.10;7.40;;;20.40;83.40;;;;;;10469709;28;20201;-29
2021/06/29 02:54:31;;;;;;;7.53;6.60;;;20.40;83.40;;;;;;10454659;28;20228;-29
2021/06/29 02:59:55;;;;;;;6.83;6.23;;;20.40;83.00;;;;;;10456594;28;20226;-29
2021/06/29 03:05:17;;;;;;;6.83;6.30;;;20.40;82.30;;;;;;10494632;28;20220;-28
2021/06/29 03:10:40;;;;;;;6.13;5.53;;;20.50;82.20;;;;;;10466280;28;20774;-28
2021/06/29 03:16:03;;;;;;;6.23;5.73;;;20.50;82.00;;;;;;10459928;28;20716;-28
2021/06/29 03:21:26;;;;;;;6.77;6.17;;;20.50;82.30;;;;;;10472340;28;20226;-29
2021/06/29 03:26:48;;;;;;;6.77;6.17;;;20.40;82.70;;;;;;10494672;28;20216;-28
2021/06/29 03:32:11;;;;;;;8.63;5.97;;;20.40;82.90;;;;;;10453678;28;20221;-28
2021/06/29 03:37:34;;;;;;;6.93;5.80;;;20.40;82.90;;;;;;10453051;28;20223;-29
2021/06/29 03:42:56;;;;;;;6.43;5.83;;;20.40;83.10;;;;;;10463587;28;20651;-28
2021/06/29 03:48:20;;;;;;;7.50;6.77;;;20.40;82.80;;;;;;10454500;28;20596;-28
2021/06/29 03:53:42;;;;;;;7.50;6.47;;;20.40;83.00;;;;;;10492740;28;20241;-28
2021/06/29 03:59:06;;;;;;;7.83;7.03;;;20.40;83.20;;;;;;10467085;28;20228;-28
2021/06/29 04:04:29;;;;;;;7.23;6.53;;;20.40;83.20;;;;;;10460903;28;20220;-28
2021/06/29 04:09:51;;;;;;;6.97;6.33;;;20.40;83.20;;;;;;10481788;28;20203;-28
2021/06/29 04:15:15;;;;;;;8.80;6.97;;;20.40;83.30;;;;;;10473854;28;20227;-28
2021/06/29 04:20:38;;;;;;;8.00;7.20;;;20.40;83.10;;;;;;10473003;28;20219;-28
2021/06/29 04:26:01;;;;;;;8.33;7.37;;;20.40;83.20;;;;;;10471501;28;20232;-28
2021/06/29 04:31:23;;;;;;;7.50;6.80;;;20.40;83.40;;;;;;10468929;28;20216;-28
2021/06/29 04:36:47;;;;;;;7.33;6.70;;;20.40;83.30;;;;;;10470509;28;20208;-29
2021/06/29 04:42:09;;;;;;;7.10;6.40;;;20.50;83.40;;;;;;10451244;28;20565;-27
2021/06/29 04:47:36;;;;;;;5.97;5.47;;;20.50;83.10;;;;;;10488589;28;20213;-28
2021/06/29 04:53:00;;;;;;;7.40;6.23;;;20.50;83.30;;;;;;10468924;28;20635;-29
2021/06/29 04:58:22;;;;;;;7.03;6.33;;;20.50;82.60;;;;;;10484970;28;20227;-28
2021/06/29 05:03:44;;;;;;;6.97;6.10;;;20.60;82.60;;;;;;10491341;28;20212;-28
2021/06/29 05:09:07;;;;;;;6.13;5.07;;;20.60;82.90;;;;;;10448220;28;20200;-28
2021/06/29 05:14:29;;;;;;;5.77;5.27;;;20.60;82.60;;;;;;10451289;28;20228;-28
2021/06/29 05:19:51;;;;;;;5.60;5.07;;;20.50;82.30;;;;;;10453453;28;20193;-29
2021/06/29 05:25:15;;;;;;;6.67;4.50;;;20.50;82.30;;;;;;10492479;28;20297;-28
2021/06/29 05:30:37;;;;;;;7.60;4.50;;;20.60;82.00;;;;;;10492601;28;20196;-28
2021/06/29 05:35:59;;;;;;;4.70;4.27;;;20.70;81.30;;;;;;10490352;28;20742;-28
2021/06/29 05:41:23;;;;;;;4.20;3.47;;;20.70;79.80;;;;;;10489419;28;20189;-27
2021/06/29 05:46:45;;;;;;;4.70;4.30;;;20.80;78.60;;;;;;10475182;28;20738;-27
2021/06/29 05:52:07;;;;;;;4.13;3.70;;;20.80;77.50;;;;;;10467911;28;20217;-26
2021/06/29 05:57:32;;;;;;;3.77;3.47;;;20.90;77.00;;;;;;10474193;28;21849;-27
2021/06/29 06:02:54;;;;;;;4.80;3.50;;;20.90;76.50;;;;;;10465722;28;20200;-28
2021/06/29 06:08:16;;;;;;;7.37;3.93;;;20.90;76.70;;;;;;10466777;28;20201;-27
2021/06/29 06:13:40;;;;;;;4.87;3.63;;;20.90;76.50;;;;;;10455337;28;20213;-27
2021/06/29 06:19:02;;;;;;;5.40;3.40;;;21.00;76.10;;;;;;10475031;28;20203;-27
2021/06/29 06:24:24;;;;;;;3.00;2.70;;;21.00;75.70;;;;;;10496348;28;20212;-27
2021/06/29 06:29:47;;;;;;;4.17;3.30;;;21.00;75.30;;;;;;10492918;28;20208;-28
2021/06/29 06:35:10;;;;;;;3.30;3.00;;;21.00;75.30;;;;;;10471819;28;20212;-27
2021/06/29 06:40:32;;;;;;;3.90;3.23;;;21.10;76.30;;;;;;10496742;28;20196;-28
2021/06/29 06:45:56;;;;;;;3.30;3.00;;;21.00;76.20;;;;;;10493538;28;20239;-29
2021/06/29 06:51:18;;;;;;;3.43;3.17;;;21.10;75.50;;;;;;10495421;28;20196;-28
2021/06/29 06:56:40;;;;;;;3.37;3.07;;;21.10;75.00;;;;;;10488727;28;20220;-28
2021/06/29 07:02:05;;;;;;;3.10;2.83;;;21.10;76.00;;;;;;10475831;28;20197;-27
2021/06/29 07:07:27;;;;;;;3.10;2.90;;;21.10;75.70;;;;;;10495431;28;20591;-28
2021/06/29 07:12:49;;;;;;;3.33;2.97;;;21.20;75.10;;;;;;10495495;28;20718;-28
2021/06/29 07:18:15;;;;;;;3.50;3.20;;;21.20;75.60;;;;;;10480238;28;20224;-28
2021/06/29 07:23:37;;;;;;;3.73;3.17;;;21.20;75.90;;;;;;10460655;28;20223;-28
2021/06/29 07:28:59;;;;;;;6.33;3.30;;;21.10;76.80;;;;;;10452999;28;20721;-27
2021/06/29 07:34:22;;;;;;;7.63;3.20;;;21.20;75.80;;;;;;10462226;28;20738;-29
2021/06/29 07:39:45;;;;;;;6.17;2.67;;;21.20;76.30;;;;;;10465835;28;20200;-28
2021/06/29 07:45:09;;;;;;;4.13;3.00;;;21.20;76.10;;;;;;10492233;28;20204;-29
2021/06/29 07:50:33;;;;;;;5.83;3.20;;;21.30;75.50;;;;;;10476262;28;20203;-28
2021/06/29 07:55:55;;;;;;;4.57;2.77;;;21.30;76.00;;;;;;10508095;28;20224;-28
2021/06/29 08:01:18;;;;;;;2.97;2.40;;;21.30;76.10;;;;;;10464869;28;20208;-29
2021/06/29 08:06:42;;;;;;;4.77;2.93;;;21.30;75.30;;;;;;10453558;28;20228;-29
2021/06/29 08:12:05;;;;;;;6.53;3.00;;;21.30;76.10;;;;;;10455481;28;20673;-29
2021/06/29 08:17:28;;;;;;;3.30;2.93;;;21.30;75.60;;;;;;10467748;28;20223;-28
2021/06/29 08:22:54;;;;;;;3.87;2.77;;;21.30;75.70;;;;;;10487497;28;20211;-28
2021/06/29 08:28:16;;;;;;;3.20;3.00;;;21.30;75.60;;;;;;10468929;28;20572;-27
2021/06/29 08:33:38;;;;;;;2.63;2.43;;;21.30;75.30;;;;;;10450684;28;20224;-27
2021/06/29 08:39:04;;;;;;;3.50;2.70;;;21.30;75.90;;;;;;10457756;28;20192;-28
2021/06/29 08:44:26;;;;;;;3.00;2.70;;;21.30;75.20;;;;;;10489849;28;20230;-28
2021/06/29 08:49:48;;;;;;;2.93;2.63;;;21.30;75.80;;;;;;10451231;28;20190;-28
2021/06/29 08:55:13;;;;;;;2.90;2.60;;;21.40;75.50;;;;;;10450938;28;20719;-28
2021/06/29 09:00:37;;;;;;;2.93;2.73;;;21.40;75.10;;;;;;10468196;28;20212;-27
2021/06/29 09:05:59;;;;;;;3.07;2.87;;;21.30;76.20;;;;;;10475738;28;20228;-28
2021/06/29 09:11:23;;;;;;;2.97;2.73;;;21.10;77.20;;;;;;10491845;28;20200;-29
2021/06/29 09:16:46;;;;;;;2.60;2.40;;;21.00;77.70;;;;;;10470594;28;20621;-28
2021/06/29 09:22:29;;;;;;;2.93;2.63;;;21.00;78.10;;;;;;10468471;28;20185;-29
2021/06/29 09:27:52;;;;;;;2.93;2.73;;;21.00;78.20;;;;;;10457461;28;20220;-29
2021/06/29 09:33:16;;;;;;;2.80;2.60;;;20.90;78.50;;;;;;10458299;28;20742;-29
2021/06/29 09:38:40;;;;;;;2.70;2.50;;;20.90;78.70;;;;;;10457871;28;20189;-29
2021/06/29 09:44:06;;;;;;;2.90;2.63;;;20.90;78.80;;;;;;10457953;28;20236;-28
2021/06/29 09:49:29;;;;;;;3.50;2.80;;;20.80;78.80;;;;;;10456818;28;20193;-28
2021/06/29 09:54:51;;;;;;;3.23;2.93;;;20.80;78.90;;;;;;10469874;28;20229;-28
2021/06/29 10:00:15;;;;;;;2.90;2.50;;;20.80;79.00;;;;;;10479733;28;20207;-29
2021/06/29 10:05:39;;;;;;;2.70;2.40;;;20.80;79.10;;;;;;10491498;28;20217;-28
2021/06/29 10:11:18;;;;;;;2.73;2.53;;;20.80;79.30;;;;;;10456893;28;20208;-28
2021/06/29 10:16:44;;;;;;;3.30;2.87;;;20.70;79.20;;;;;;10495023;28;20224;-28
2021/06/29 10:22:07;;;;;;;2.70;2.50;;;20.80;79.30;;;;;;10464394;28;20275;-28
2021/06/29 10:27:29;;;;;;;2.70;2.50;;;20.70;79.30;;;;;;10457306;28;20220;-29
2021/06/29 10:32:52;;;;;;;2.93;2.47;;;20.70;79.40;;;;;;10456218;28;20700;-28
2021/06/29 10:38:15;;;;;;;2.60;2.40;;;20.70;79.30;;;;;;10458386;28;20216;-28
2021/06/29 10:43:38;;;;;;;3.10;2.80;;;20.70;79.40;;;;;;10482559;28;20213;-29
2021/06/29 10:49:31;;;;;;;3.67;2.47;;;20.70;79.40;;;;;;10454355;28;20247;-28
2021/06/29 10:54:54;;;;;;;2.70;2.50;;;20.80;79.30;;;;;;10455016;28;20743;-28
2021/06/29 11:00:32;;;;;;;2.93;2.57;;;20.80;79.70;;;;;;10483259;28;20676;-28
2021/06/29 11:06:02;;;;;;;2.70;2.50;;;20.80;79.70;;;;;;10454134;28;20712;-29
2021/06/29 11:11:25;;;;;;;2.73;2.50;;;20.80;79.80;;;;;;10488387;28;20724;-28
2021/06/29 11:16:56;;;;;;;2.63;2.43;;;20.70;79.90;;;;;;10480461;28;20221;-28
2021/06/29 11:22:51;;;;;;;3.63;2.53;;;20.80;80.00;;;;;;10477457;28;20197;-28
2021/06/29 11:28:17;;;;;;;3.97;2.87;;;20.70;79.90;;;;;;10493404;28;20587;-29
2021/06/29 11:33:55;;;;;;;2.80;2.60;;;20.70;80.10;;;;;;10495632;28;20223;-29
2021/06/29 11:39:33;;;;;;;3.03;2.73;;;20.80;80.20;;;;;;10491673;28;20189;-28
2021/06/29 11:45:06;;;;;;;2.67;2.47;;;20.70;80.00;;;;;;10481521;28;20286;-28
2021/06/29 11:50:28;;;;;;;3.00;2.70;;;20.70;80.20;;;;;;10452157;28;20694;-29
2021/06/29 11:55:50;;;;;;;3.23;2.60;;;20.70;80.20;;;;;;10452641;28;20220;-27
2021/06/29 12:01:14;;;;;;;2.40;2.20;;;20.70;80.20;;;;;;10463036;28;20201;-28
2021/06/29 12:06:36;;;;;;;2.73;2.53;;;20.70;80.20;;;;;;10492501;28;20231;-27
2021/06/29 12:12:19;;;;;;;2.50;2.30;;;20.70;80.20;;;;;;10492790;28;20616;-28
2021/06/29 12:17:49;;;;;;;2.63;2.43;;;20.70;80.10;;;;;;10471939;28;20219;-27
2021/06/29 12:23:13;;;;;;;2.73;2.53;;;20.70;80.20;;;;;;10466174;28;20189;-28
2021/06/29 12:28:38;;;;;;;2.57;2.37;;;20.70;80.30;;;;;;10450712;28;20205;-28
2021/06/29 12:34:02;;;;;;;2.80;2.60;;;20.70;80.20;;;;;;10444967;28;20251;-28
2021/06/29 12:39:24;;;;;;;2.70;2.50;;;20.70;80.20;;;;;;10451881;28;20192;-28
2021/06/29 12:44:46;;;;;;;2.60;2.40;;;20.70;80.20;;;;;;10487207;28;20220;-29
2021/06/29 12:50:11;;;;;;;2.30;2.10;;;20.70;80.20;;;;;;10484869;28;20196;-29
2021/06/29 12:55:34;;;;;;;3.67;2.73;;;20.70;80.10;;;;;;10485314;28;20223;-27
2021/06/29 13:00:56;;;;;;;2.87;2.50;;;20.70;80.20;;;;;;10461404;28;20255;-29
2021/06/29 13:06:23;;;;;;;3.00;2.73;;;20.70;80.30;;;;;;10460511;28;20224;-28
2021/06/29 13:11:53;;;;;;;2.73;2.53;;;20.70;80.20;;;;;;10481004;28;20208;-28
2021/06/29 13:17:15;;;;;;;2.60;2.40;;;20.70;80.20;;;;;;10504898;28;20560;-30
2021/06/29 13:22:43;;;;;;;9.03;2.67;;;20.80;80.20;;;;;;10497347;28;20196;-27
2021/06/29 13:28:09;;;;;;;5.00;2.70;;;20.80;79.90;;;;;;10462838;28;20229;-30
2021/06/29 13:33:36;;;;;;;3.77;2.27;;;20.80;80.10;;;;;;10474125;28;20219;-30
2021/06/29 13:38:59;;;;;;;4.03;2.83;;;20.80;80.00;;;;;;10470472;28;20278;-28
2021/06/29 13:44:22;;;;;;;4.33;2.53;;;20.80;80.60;;;;;;10468509;28;20221;-30
2021/06/29 13:49:57;;;;;;;2.70;2.50;;;20.70;80.20;;;;;;10453483;28;20197;-30
2021/06/29 13:55:20;;;;;;;2.53;2.30;;;20.70;80.30;;;;;;10454428;28;20228;-29
2021/06/29 14:00:43;;;;;;;2.50;2.30;;;20.70;80.40;;;;;;10468098;28;20193;-28
2021/06/29 14:06:07;;;;;;;2.57;2.37;;;20.70;80.50;;;;;;10456013;28;20300;-28
2021/06/29 14:11:36;;;;;;;2.63;2.43;;;20.70;80.50;;;;;;10495536;28;20756;-28
2021/06/29 14:16:58;;;;;;;2.80;2.60;;;20.70;80.50;;;;;;10496692;28;20230;-30
2021/06/29 14:22:20;;;;;;;6.00;2.60;;;20.70;80.60;;;;;;10486393;28;20691;-29
2021/06/29 14:27:49;;;;;;;2.83;2.37;;;20.70;80.60;;;;;;10465720;28;20209;-30
2021/06/29 14:33:12;;;;;;;2.60;2.40;;;20.70;80.60;;;;;;10456477;28;20209;-29
2021/06/29 14:38:34;;;;;;;2.60;2.40;;;20.70;80.50;;;;;;10454730;28;20197;-30
2021/06/29 14:43:57;;;;;;;3.33;2.53;;;20.70;80.50;;;;;;10462579;28;20643;-29
2021/06/29 14:49:19;;;;;;;2.90;2.30;;;20.70;80.60;;;;;;10479898;28;20192;-30
2021/06/29 14:54:41;;;;;;;2.60;2.40;;;20.70;80.60;;;;;;10478839;28;20283;-30
2021/06/29 15:00:07;;;;;;;2.70;2.50;;;20.60;80.50;;;;;;10453852;28;20193;-29
2021/06/29 15:05:29;;;;;;;2.80;2.60;;;20.70;80.60;;;;;;10453948;28;20243;-30
2021/06/29 15:10:52;;;;;;;2.43;2.23;;;20.60;80.50;;;;;;10461689;28;20193;-28
2021/06/29 15:16:17;;;;;;;2.90;2.60;;;20.70;80.50;;;;;;10453007;28;20219;-27
2021/06/29 15:21:39;;;;;;;2.40;2.20;;;20.70;80.60;;;;;;10471093;28;20275;-29
2021/06/29 15:27:02;;;;;;;2.50;2.30;;;20.70;80.60;;;;;;10495400;28;20223;-28
2021/06/29 15:32:26;;;;;;;2.40;2.20;;;20.60;81.10;;;;;;10494341;28;20204;-29
2021/06/29 15:37:49;;;;;;;2.27;2.10;;;20.70;80.60;;;;;;10494314;28;20216;-30
2021/06/29 15:43:11;;;;;;;2.90;2.60;;;20.60;80.50;;;;;;10491889;28;20196;-30
2021/06/29 15:48:35;;;;;;;2.67;2.47;;;20.60;80.60;;;;;;10471610;28;20228;-28
2021/06/29 15:53:57;;;;;;;2.27;2.17;;;20.60;80.50;;;;;;10486095;28;20603;-28
2021/06/29 15:59:20;;;;;;;2.40;2.20;;;20.60;80.60;;;;;;10495383;28;20690;-29
2021/06/29 16:04:44;;;;;;;2.57;2.37;;;20.60;80.60;;;;;;10485210;28;20224;-29
2021/06/29 16:10:07;;;;;;;2.40;2.20;;;20.60;80.50;;;;;;10494829;28;20219;-28
2021/06/29 16:15:30;;;;;;;2.30;2.10;;;20.60;80.60;;;;;;10493924;28;20228;-29
2021/06/29 16:20:53;;;;;;;2.40;2.20;;;20.60;80.60;;;;;;10486595;28;20194;-30
2021/06/29 16:26:15;;;;;;;2.20;2.10;;;20.60;80.60;;;;;;10456251;28;20209;-28
2021/06/29 16:31:38;;;;;;;2.00;1.90;;;20.60;80.60;;;;;;10451542;28;20201;-29
2021/06/29 16:37:02;;;;;;;2.53;2.33;;;20.60;80.60;;;;;;10452034;28;20221;-28
2021/06/29 16:42:24;;;;;;;2.10;2.00;;;20.60;80.60;;;;;;10479957;28;20682;-29
2021/06/29 16:47:46;;;;;;;2.30;2.10;;;20.60;80.60;;;;;;10458607;28;20743;-27
2021/06/29 16:53:10;;;;;;;2.50;2.30;;;20.60;80.60;;;;;;10457748;28;20219;-29
2021/06/29 16:58:33;;;;;;;2.03;1.93;;;20.60;80.60;;;;;;10460105;28;20273;-31
2021/06/29 17:03:55;;;;;;;2.07;1.90;;;20.60;80.50;;;;;;10464163;28;20224;-29
2021/06/29 17:09:18;;;;;;;2.40;2.20;;;20.60;80.60;;;;;;10469519;28;20204;-30
2021/06/29 17:14:40;;;;;;;2.43;2.23;;;20.60;80.60;;;;;;10486429;28;20224;-28
2021/06/29 17:20:04;;;;;;;2.17;2.07;;;20.60;80.60;;;;;;10481968;28;20196;-29
2021/06/29 17:25:28;;;;;;;2.30;2.10;;;20.60;80.60;;;;;;10443900;28;20209;-29
2021/06/29 17:30:50;;;;;;;2.33;2.20;;;20.60;80.60;;;;;;10453949;28;20200;-30
2021/06/29 17:36:12;;;;;;;2.20;1.97;;;20.60;80.60;;;;;;10486208;28;20243;-28
2021/06/29 17:41:35;;;;;;;2.20;2.10;;;20.60;80.60;;;;;;10485348;28;20200;-28
2021/06/29 17:46:57;;;;;;;2.10;2.00;;;20.60;80.60;;;;;;10481310;28;20238;-29
2021/06/29 17:52:20;;;;;;;2.23;2.03;;;20.60;80.60;;;;;;10492147;28;20200;-29
2021/06/29 17:57:44;;;;;;;2.13;1.93;;;20.60;80.70;;;;;;10488868;28;20224;-29
2021/06/29 18:03:06;;;;;;;2.60;1.97;;;20.60;80.70;;;;;;10480562;28;20196;-31
2021/06/29 18:08:28;;;;;;;2.43;2.23;;;20.60;80.70;;;;;;10456478;28;20192;-31
2021/06/29 18:13:52;;;;;;;2.10;2.00;;;20.60;80.70;;;;;;10466312;28;20224;-30
2021/06/29 18:19:14;;;;;;;2.03;1.90;;;20.60;80.70;;;;;;10464489;28;20193;-28
2021/06/29 18:24:36;;;;;;;2.07;1.90;;;20.60;80.70;;;;;;10493874;28;20215;-29
2021/06/29 18:30:00;;;;;;;2.60;2.40;;;20.60;80.60;;;;;;10478336;28;20192;-29
2021/06/29 18:35:22;;;;;;;2.10;2.00;;;20.60;80.70;;;;;;10494536;28;20247;-29
2021/06/29 18:40:45;;;;;;;2.47;2.27;;;20.60;80.70;;;;;;10497648;28;20204;-30
2021/06/29 18:46:09;;;;;;;1.90;1.80;;;20.60;80.70;;;;;;10469497;28;20687;-29
2021/06/29 18:51:32;;;;;;;2.00;1.80;;;20.60;80.70;;;;;;10481920;28;20193;-29
2021/06/29 18:56:54;;;;;;;2.20;2.00;;;20.60;80.80;;;;;;10489396;28;20573;-29
2021/06/29 19:02:17;;;;;;;1.90;1.80;;;20.60;80.70;;;;;;10457546;28;20202;-28
2021/06/29 19:07:40;;;;;;;1.80;1.70;;;20.60;80.80;;;;;;10473954;28;20874;-28
2021/06/29 19:13:02;;;;;;;2.30;2.10;;;20.60;80.70;;;;;;10494370;28;20201;-29
2021/06/29 19:18:26;;;;;;;1.87;1.77;;;20.60;80.70;;;;;;10470829;28;20220;-28
2021/06/29 19:23:48;;;;;;;2.10;2.00;;;20.60;80.70;;;;;;10488591;28;20216;-29
2021/06/29 19:29:10;;;;;;;1.93;1.83;;;20.60;80.80;;;;;;10495210;28;20204;-27
2021/06/29 19:34:34;;;;;;;2.10;1.90;;;20.60;80.80;;;;;;10463639;28;20224;-28
2021/06/29 19:39:56;;;;;;;1.73;1.63;;;20.60;80.80;;;;;;10475697;28;20189;-28
2021/06/29 19:45:18;;;;;;;2.00;1.90;;;20.60;80.80;;;;;;10475009;28;20217;-27
2021/06/29 19:50:42;;;;;;;1.67;1.57;;;20.60;80.80;;;;;;10473853;28;20262;-28
2021/06/29 19:56:04;;;;;;;1.77;1.67;;;20.60;80.80;;;;;;10472991;28;20236;-28
2021/06/29 20:01:28;;;;;;;3.00;1.80;;;20.60;80.90;;;;;;10474234;28;20207;-28
2021/06/29 20:06:51;;;;;;;2.73;2.00;;;20.60;80.80;;;;;;10468168;28;20225;-28
2021/06/29 20:12:14;;;;;;;2.00;1.90;;;20.60;80.80;;;;;;10471112;28;20578;-27
2021/06/29 20:17:36;;;;;;;1.80;1.70;;;20.60;80.80;;;;;;10472664;28;20220;-27
2021/06/29 20:22:59;;;;;;;1.70;1.60;;;20.60;80.80;;;;;;10464477;28;20200;-28
2021/06/29 20:28:21;;;;;;;1.77;1.67;;;20.60;80.80;;;;;;10462875;28;20216;-29
2021/06/29 20:33:44;;;;;;;2.23;1.90;;;20.60;80.90;;;;;;10450666;28;20225;-28
2021/06/29 20:39:08;;;;;;;1.90;1.70;;;20.60;80.80;;;;;;10451486;28;20185;-28
2021/06/29 20:44:31;;;;;;;1.60;1.50;;;20.60;80.80;;;;;;10464055;28;20225;-27
2021/06/29 20:49:53;;;;;;;1.70;1.60;;;20.60;80.80;;;;;;10466828;28;20193;-28
2021/06/29 20:55:17;;;;;;;1.70;1.60;;;20.60;80.80;;;;;;10490136;28;20227;-28
2021/06/29 21:00:39;;;;;;;1.67;1.37;;;20.60;80.80;;;;;;10482471;28;20200;-28
2021/06/29 21:06:01;;;;;;;2.17;1.80;;;20.60;80.80;;;;;;10470230;28;20592;-28
2021/06/29 21:11:26;;;;;;;1.57;1.47;;;20.60;80.80;;;;;;10455682;28;20295;-29
2021/06/29 21:16:48;;;;;;;1.77;1.67;;;20.50;80.80;;;;;;10484594;28;20711;-28
2021/06/29 21:22:10;;;;;;;1.50;1.40;;;20.60;80.80;;;;;;10475697;28;20219;-28
2021/06/29 21:27:34;;;;;;;1.50;1.40;;;20.60;80.90;;;;;;10472069;28;20242;-28
2021/06/29 21:32:56;;;;;;;2.03;1.87;;;20.60;80.90;;;;;;10500665;28;20204;-29
2021/06/29 21:38:19;;;;;;;1.40;1.30;;;20.60;80.80;;;;;;10499699;28;20217;-28
2021/06/29 21:43:42;;;;;;;2.67;1.57;;;20.60;80.80;;;;;;10466955;28;20254;-29
2021/06/29 21:49:06;;;;;;;2.90;1.80;;;20.60;80.90;;;;;;10457822;28;20668;-29
2021/06/29 21:54:28;;;;;;;1.73;1.63;;;20.50;80.80;;;;;;10457541;28;20296;-28
2021/06/29 21:59:51;;;;;;;2.40;1.67;;;20.60;80.80;;;;;;10457140;28;20197;-29
2021/06/29 22:05:13;;;;;;;1.63;1.53;;;20.60;80.80;;;;;;10483117;28;20224;-28
2021/06/29 22:10:35;;;;;;;1.70;1.60;;;20.60;80.80;;;;;;10484700;28;20193;-29
2021/06/29 22:15:59;;;;;;;1.50;1.40;;;20.60;80.80;;;;;;10456027;28;20227;-28
2021/06/29 22:21:21;;;;;;;1.50;1.40;;;20.60;80.80;;;;;;10472238;28;20203;-27
2021/06/29 22:26:43;;;;;;;1.77;1.67;;;20.60;80.80;;;;;;10471987;28;20228;-27
2021/06/29 22:32:08;;;;;;;2.00;1.57;;;20.60;80.80;;;;;;10454837;28;20672;-28
2021/06/29 22:37:30;;;;;;;3.53;1.80;;;20.60;80.90;;;;;;10468982;28;20733;-28
2021/06/29 22:42:52;;;;;;;2.00;1.90;;;20.60;80.80;;;;;;10491043;28;20212;-29
2021/06/29 22:48:16;;;;;;;1.80;1.70;;;20.60;80.80;;;;;;10498782;28;20213;-29
2021/06/29 22:53:38;;;;;;;1.73;1.63;;;20.60;80.80;;;;;;10497999;28;20196;-29
2021/06/29 22:59:00;;;;;;;1.93;1.73;;;20.60;80.70;;;;;;10478775;28;20700;-28
2021/06/29 23:04:24;;;;;;;1.67;1.57;;;20.60;80.80;;;;;;10453893;28;20225;-28
2021/06/29 23:09:46;;;;;;;1.70;1.60;;;20.50;80.70;;;;;;10453531;28;20198;-28
2021/06/29 23:15:09;;;;;;;1.90;1.70;;;20.50;80.70;;;;;;10453610;28;20224;-28
2021/06/29 23:20:33;;;;;;;1.80;1.70;;;20.60;81.30;;;;;;10486588;28;20204;-29
2021/06/29 23:25:55;;;;;;;2.27;1.67;;;20.50;80.80;;;;;;10455282;28;20211;-28
2021/06/29 23:31:17;;;;;;;1.90;1.80;;;20.60;80.80;;;;;;10453077;28;20212;-27
2021/06/29 23:36:41;;;;;;;1.80;1.70;;;20.50;80.70;;;;;;10459076;28;20227;-28
2021/06/29 23:42:03;;;;;;;1.63;1.53;;;20.50;80.70;;;;;;10484903;28;20193;-28
2021/06/29 23:47:26;;;;;;;2.20;2.00;;;20.60;80.80;;;;;;10494508;28;20592;-28
2021/06/29 23:52:49;;;;;;;2.10;2.00;;;20.60;80.80;;;;;;10494903;28;20197;-27
2021/06/29 23:58:12;;;;;;;1.87;1.77;;;20.50;80.70;;;;;;10494829;28;20275;-28
